Time,TemperatureF,DewpointF,PressureIn,WindDirection,WindDirectionDegrees,WindSpeedMPH,WindSpeedGustMPH,Humidity,HourlyPrecipIn,Conditions,Clouds,dailyrainin,SolarRadiationWatts/m^2,SoftwareType,DateUTC
2013-08-06 00:00:00,68.5,66.4,29.87,South,175,2.0,3.0,93,0.00,,,0.00,0,Wunderground v.1.15,2013-08-06 05:00:00,
2013-08-06 00:05:00,68.4,66.3,29.87,South,175,2.0,3.0,93,0.00,,,0.00,0,Wunderground v.1.15,2013-08-06 05:05:00,
2013-08-06 00:10:00,68.3,66.5,29.87,South,175,3.0,3.0,94,0.00,,,0.00,0,Wunderground v.1.15,2013-08-06 05:10:00,
2013-08-06 00:15:00,68.1,66.3,29.87,South,175,2.0,3.0,94,0.00,,,0.00,0,Wunderground v.1.15,2013-08-06 05:15:00,
2013-08-06 00:20:00,68.0,66.2,29.87,South,175,2.0,2.0,94,0.00,,,0.00,0,Wunderground v.1.15,2013-08-06 05:20:00,
2013-08-06 00:30:00,67.9,66.1,29.87,South,175,1.0,2.0,94,0.00,,,0.00,0,Wunderground v.1.15,2013-08-06 05:30:00,
2013-08-06 00:35:00,67.8,66.0,29.87,South,175,2.0,2.0,94,0.00,,,0.00,0,Wunderground v.1.15,2013-08-06 05:35:00,
2013-08-06 00:40:00,67.8,66.3,29.87,South,175,2.0,2.0,95,0.00,,,0.00,0,Wunderground v.1.15,2013-08-06 05:40:00,
2013-08-06 00:45:00,67.7,66.2,29.87,South,175,2.0,2.0,95,0.00,,,0.00,0,Wunderground v.1.15,2013-08-06 05:45:00,
2013-08-06 00:50:00,67.6,66.1,29.87,South,175,2.0,3.0,95,0.00,,,0.00,0,Wunderground v.1.15,2013-08-06 05:50:00,
2013-08-06 00:55:00,67.5,66.0,29.87,South,175,2.0,3.0,95,0.00,,,0.00,0,Wunderground v.1.15,2013-08-06 05:55:00,
2013-08-06 01:05:00,67.4,65.9,29.87,South,175,2.0,4.0,95,0.00,,,0.00,0,Wunderground v.1.15,2013-08-06 06:05:00,
2013-08-06 01:10:00,67.3,65.8,29.87,South,175,1.0,1.0,95,0.00,,,0.00,0,Wunderground v.1.15,2013-08-06 06:10:00,
2013-08-06 01:15:00,67.2,65.7,29.87,South,175,1.0,1.0,95,0.00,,,0.00,0,Wunderground v.1.15,2013-08-06 06:15:00,
2013-08-06 01:20:00,67.0,65.5,29.87,South,175,1.0,1.0,95,0.00,,,0.00,0,Wunderground v.1.15,2013-08-06 06:20:00,
2013-08-06 01:25:00,67.0,65.5,29.87,South,175,0.0,1.0,95,0.00,,,0.00,0,Wunderground v.1.15,2013-08-06 06:25:00,
2013-08-06 01:35:00,66.7,65.2,29.87,South,175,1.0,1.0,95,0.00,,,0.00,0,Wunderground v.1.15,2013-08-06 06:35:00,
2013-08-06 01:40:00,66.6,65.1,29.87,South,175,1.0,1.0,95,0.00,,,0.00,0,Wunderground v.1.15,2013-08-06 06:40:00,
2013-08-06 01:45:00,66.5,65.0,29.87,South,175,1.0,3.0,95,0.00,,,0.00,0,Wunderground v.1.15,2013-08-06 06:45:00,
2013-08-06 01:50:00,66.4,64.9,29.87,South,175,2.0,3.0,95,0.00,,,0.00,0,Wunderground v.1.15,2013-08-06 06:50:00,
2013-08-06 01:55:00,66.4,65.2,29.87,South,175,2.0,3.0,96,0.00,,,0.00,0,Wunderground v.1.15,2013-08-06 06:55:00,
2013-08-06 02:00:00,66.4,65.2,29.87,South,175,2.0,2.0,96,0.00,,,0.00,0,Wunderground v.1.15,2013-08-06 07:00:00,
2013-08-06 02:05:00,66.4,65.2,29.87,South,175,2.0,2.0,96,0.00,,,0.00,0,Wunderground v.1.15,2013-08-06 07:05:00,
2013-08-06 02:15:00,66.2,65.0,29.86,South,175,1.0,2.0,96,0.00,,,0.00,0,Wunderground v.1.15,2013-08-06 07:15:00,
2013-08-06 02:20:00,66.1,64.9,29.86,South,175,1.0,2.0,96,0.00,,,0.00,0,Wunderground v.1.15,2013-08-06 07:20:00,
2013-08-06 02:25:00,66.1,64.9,29.86,South,175,1.0,2.0,96,0.00,,,0.00,0,Wunderground v.1.15,2013-08-06 07:25:00,
2013-08-06 02:30:00,66.1,64.9,29.85,South,175,1.0,2.0,96,0.00,,,0.00,0,Wunderground v.1.15,2013-08-06 07:30:00,
2013-08-06 02:40:00,66.2,65.0,29.84,South,175,2.0,2.0,96,0.00,,,0.00,0,Wunderground v.1.15,2013-08-06 07:40:00,
2013-08-06 02:45:00,66.4,65.5,29.84,South,175,2.0,3.0,97,0.00,,,0.00,0,Wunderground v.1.15,2013-08-06 07:45:00,
2013-08-06 02:50:00,66.6,65.7,29.84,South,175,2.0,6.0,97,0.00,,,0.00,0,Wunderground v.1.15,2013-08-06 07:50:00,
2013-08-06 02:55:00,66.8,65.9,29.84,South,175,3.0,6.0,97,0.00,,,0.00,0,Wunderground v.1.15,2013-08-06 07:55:00,
2013-08-06 03:00:00,67.0,66.1,29.84,South,175,2.0,5.0,97,0.00,,,0.00,0,Wunderground v.1.15,2013-08-06 08:00:00,
2013-08-06 03:05:00,67.1,66.2,29.84,South,175,3.0,5.0,97,0.00,,,0.00,0,Wunderground v.1.15,2013-08-06 08:05:00,
2013-08-06 03:15:00,67.2,66.3,29.84,South,175,4.0,5.0,97,0.00,,,0.00,0,Wunderground v.1.15,2013-08-06 08:15:00,
2013-08-06 03:20:00,67.3,66.4,29.83,South,176,4.0,4.0,97,0.00,,,0.00,0,Wunderground v.1.15,2013-08-06 08:20:00,
2013-08-06 03:25:00,67.4,66.5,29.83,South,176,3.0,4.0,97,0.00,,,0.00,0,Wunderground v.1.15,2013-08-06 08:25:00,
2013-08-06 03:30:00,67.4,66.5,29.83,South,176,3.0,5.0,97,0.00,,,0.00,0,Wunderground v.1.15,2013-08-06 08:30:00,
2013-08-06 03:35:00,67.4,66.5,29.83,South,176,3.0,5.0,97,0.00,,,0.00,0,Wunderground v.1.15,2013-08-06 08:35:00,
2013-08-06 03:45:00,67.4,66.5,29.83,South,176,3.0,4.0,97,0.00,,,0.00,0,Wunderground v.1.15,2013-08-06 08:45:00,
2013-08-06 03:50:00,67.5,66.6,29.83,South,176,3.0,5.0,97,0.00,,,0.00,0,Wunderground v.1.15,2013-08-06 08:50:00,
2013-08-06 03:55:00,67.5,66.6,29.83,South,176,3.0,5.0,97,0.00,,,0.00,0,Wunderground v.1.15,2013-08-06 08:55:00,
2013-08-06 04:00:00,67.5,66.6,29.83,South,176,3.0,3.0,97,0.00,,,0.00,0,Wunderground v.1.15,2013-08-06 09:00:00,
2013-08-06 04:05:00,67.5,66.6,29.83,South,176,3.0,4.0,97,0.00,,,0.00,0,Wunderground v.1.15,2013-08-06 09:05:00,
2013-08-06 04:10:00,67.5,66.6,29.83,South,176,3.0,4.0,97,0.00,,,0.00,0,Wunderground v.1.15,2013-08-06 09:10:00,
2013-08-06 04:20:00,67.6,66.7,29.83,South,176,3.0,4.0,97,0.00,,,0.00,0,Wunderground v.1.15,2013-08-06 09:20:00,
2013-08-06 04:25:00,67.6,66.7,29.83,South,176,3.0,4.0,97,0.00,,,0.00,0,Wunderground v.1.15,2013-08-06 09:25:00,
2013-08-06 04:30:00,67.6,66.7,29.84,South,176,4.0,4.0,97,0.00,,,0.00,0,Wunderground v.1.15,2013-08-06 09:30:00,
2013-08-06 04:35:00,67.6,66.7,29.84,South,176,4.0,4.0,97,0.00,,,0.00,0,Wunderground v.1.15,2013-08-06 09:35:00,
2013-08-06 04:40:00,67.6,66.7,29.84,South,176,4.0,4.0,97,0.00,,,0.00,0,Wunderground v.1.15,2013-08-06 09:40:00,
2013-08-06 04:50:00,67.6,66.7,29.84,South,176,3.0,3.0,97,0.00,,,0.00,0,Wunderground v.1.15,2013-08-06 09:50:00,
2013-08-06 04:55:00,67.6,66.7,29.83,South,176,2.0,3.0,97,0.00,,,0.00,0,Wunderground v.1.15,2013-08-06 09:55:00,
2013-08-06 05:00:00,67.7,66.8,29.83,South,176,3.0,4.0,97,0.00,,,0.00,0,Wunderground v.1.15,2013-08-06 10:00:00,
2013-08-06 05:05:00,67.6,66.7,29.83,South,176,3.0,6.0,97,0.00,,,0.00,0,Wunderground v.1.15,2013-08-06 10:05:00,
2013-08-06 05:10:00,67.6,66.7,29.83,South,176,3.0,3.0,97,0.00,,,0.00,0,Wunderground v.1.15,2013-08-06 10:10:00,
2013-08-06 05:15:00,67.6,66.7,29.83,South,175,4.0,5.0,97,0.00,,,0.00,0,Wunderground v.1.15,2013-08-06 10:15:00,
2013-08-06 05:25:00,67.6,66.7,29.83,South,174,4.0,5.0,97,0.00,,,0.00,0,Wunderground v.1.15,2013-08-06 10:25:00,
2013-08-06 05:30:00,67.6,66.7,29.83,South,173,4.0,5.0,97,0.00,,,0.00,0,Wunderground v.1.15,2013-08-06 10:30:00,
2013-08-06 05:35:00,67.6,66.7,29.83,South,173,5.0,6.0,97,0.00,,,0.00,0,Wunderground v.1.15,2013-08-06 10:35:00,
2013-08-06 05:40:00,67.6,67.0,29.84,South,172,4.0,4.0,98,0.00,,,0.00,0,Wunderground v.1.15,2013-08-06 10:40:00,
2013-08-06 05:45:00,67.6,67.0,29.84,South,172,3.0,4.0,98,0.00,,,0.00,0,Wunderground v.1.15,2013-08-06 10:45:00,
2013-08-06 05:55:00,67.6,67.0,29.84,South,172,3.0,4.0,98,0.00,,,0.00,0,Wunderground v.1.15,2013-08-06 10:55:00,
2013-08-06 06:00:00,67.6,67.0,29.85,South,172,3.0,3.0,98,0.00,,,0.00,0,Wunderground v.1.15,2013-08-06 11:00:00,
2013-08-06 06:05:00,67.7,67.1,29.85,South,172,3.0,3.0,98,0.00,,,0.00,0,Wunderground v.1.15,2013-08-06 11:05:00,
2013-08-06 06:10:00,67.7,67.1,29.85,South,172,2.0,2.0,98,0.00,,,0.00,0,Wunderground v.1.15,2013-08-06 11:10:00,
2013-08-06 06:15:00,67.7,67.1,29.86,South,172,2.0,2.0,98,0.00,,,0.00,0,Wunderground v.1.15,2013-08-06 11:15:00,
2013-08-06 06:20:00,67.7,67.1,29.86,South,172,2.0,4.0,98,0.00,,,0.00,7,Wunderground v.1.15,2013-08-06 11:20:00,
2013-08-06 06:30:00,67.7,67.1,29.86,SE,139,3.0,3.0,98,0.00,,,0.00,11,Wunderground v.1.15,2013-08-06 11:30:00,
2013-08-06 06:35:00,67.7,67.1,29.86,SSE,155,4.0,4.0,98,0.00,,,0.00,14,Wunderground v.1.15,2013-08-06 11:35:00,
2013-08-06 06:40:00,67.7,67.1,29.87,SSE,157,4.0,4.0,98,0.00,,,0.00,25,Wunderground v.1.15,2013-08-06 11:40:00,
2013-08-06 06:45:00,67.8,67.2,29.87,South,172,4.0,6.0,98,0.00,,,0.00,37,Wunderground v.1.15,2013-08-06 11:45:00,
2013-08-06 06:50:00,67.7,67.1,29.87,South,190,5.0,5.0,98,0.00,,,0.00,37,Wunderground v.1.15,2013-08-06 11:50:00,
2013-08-06 07:00:00,67.7,67.1,29.87,South,182,6.0,6.0,98,0.00,,,0.00,47,Wunderground v.1.15,2013-08-06 12:00:00,
2013-08-06 07:10:00,67.8,67.2,29.87,South,182,5.0,5.0,98,0.00,,,0.00,65,Wunderground v.1.15,2013-08-06 12:10:00,
2013-08-06 07:15:00,67.8,67.2,29.87,South,182,5.0,5.0,98,0.00,,,0.00,76,Wunderground v.1.15,2013-08-06 12:15:00,
2013-08-06 07:20:00,67.9,67.3,29.87,SSW,194,5.0,6.0,98,0.00,,,0.00,83,Wunderground v.1.15,2013-08-06 12:20:00,
2013-08-06 07:25:00,68.0,67.4,29.87,SSW,192,6.0,7.0,98,0.00,,,0.00,95,Wunderground v.1.15,2013-08-06 12:25:00,
2013-08-06 07:30:00,68.0,67.4,29.87,SSW,192,5.0,5.0,98,0.00,,,0.00,93,Wunderground v.1.15,2013-08-06 12:30:00,
2013-08-06 07:35:00,68.1,67.5,29.88,SSW,193,4.0,6.0,98,0.00,,,0.00,84,Wunderground v.1.15,2013-08-06 12:35:00,
2013-08-06 07:40:00,68.2,67.6,29.87,SSW,195,4.0,4.0,98,0.00,,,0.00,104,Wunderground v.1.15,2013-08-06 12:40:00,
2013-08-06 07:45:00,68.3,67.7,29.87,SSW,195,5.0,5.0,98,0.00,,,0.00,113,Wunderground v.1.15,2013-08-06 12:45:00,
2013-08-06 07:50:00,68.4,67.8,29.87,SSW,195,4.0,4.0,98,0.00,,,0.00,118,Wunderground v.1.15,2013-08-06 12:50:00,
2013-08-06 07:55:00,68.5,67.9,29.87,SSW,195,3.0,4.0,98,0.00,,,0.00,120,Wunderground v.1.15,2013-08-06 12:55:00,
2013-08-06 08:05:00,68.8,68.2,29.87,SSW,195,2.0,2.0,98,0.00,,,0.00,178,Wunderground v.1.15,2013-08-06 13:05:00,
2013-08-06 08:10:00,69.0,68.4,29.87,SSW,195,2.0,4.0,98,0.00,,,0.00,146,Wunderground v.1.15,2013-08-06 13:10:00,
2013-08-06 08:15:00,69.1,68.5,29.87,SSW,195,2.0,4.0,98,0.00,,,0.00,190,Wunderground v.1.15,2013-08-06 13:15:00,
2013-08-06 08:20:00,69.2,68.6,29.88,SSW,195,3.0,3.0,98,0.00,,,0.00,214,Wunderground v.1.15,2013-08-06 13:20:00,
2013-08-06 08:25:00,69.3,68.7,29.88,SSW,195,3.0,5.0,98,0.00,,,0.00,169,Wunderground v.1.15,2013-08-06 13:25:00,
2013-08-06 08:30:00,69.5,68.9,29.89,SSW,195,4.0,6.0,98,0.00,,,0.00,185,Wunderground v.1.15,2013-08-06 13:30:00,
2013-08-06 08:35:00,69.6,69.0,29.89,SSW,195,5.0,6.0,98,0.00,,,0.00,174,Wunderground v.1.15,2013-08-06 13:35:00,
2013-08-06 08:40:00,69.7,69.1,29.89,SSW,196,5.0,7.0,98,0.00,,,0.00,158,Wunderground v.1.15,2013-08-06 13:40:00,
2013-08-06 08:45:00,69.8,69.2,29.89,SSW,196,5.0,7.0,98,0.00,,,0.00,144,Wunderground v.1.15,2013-08-06 13:45:00,
2013-08-06 08:50:00,69.8,69.2,29.89,SSW,197,5.0,6.0,98,0.00,,,0.00,179,Wunderground v.1.15,2013-08-06 13:50:00,
2013-08-06 08:55:00,69.9,69.3,29.89,SW,217,6.0,6.0,98,0.00,,,0.00,93,Wunderground v.1.15,2013-08-06 13:55:00,
2013-08-06 09:00:00,69.9,69.3,29.89,SW,215,7.0,7.0,98,0.00,,,0.00,105,Wunderground v.1.15,2013-08-06 14:00:00,
2013-08-06 09:10:00,70.0,69.4,29.89,SW,224,7.0,7.0,98,0.00,,,0.00,97,Wunderground v.1.15,2013-08-06 14:10:00,
2013-08-06 09:15:00,70.0,69.4,29.89,SW,223,7.0,9.0,98,0.00,,,0.00,79,Wunderground v.1.15,2013-08-06 14:15:00,
2013-08-06 09:20:00,70.0,69.4,29.89,SW,228,7.0,7.0,98,0.00,,,0.00,127,Wunderground v.1.15,2013-08-06 14:20:00,
2013-08-06 09:25:00,70.1,69.5,29.88,SW,227,6.0,7.0,98,0.00,,,0.00,239,Wunderground v.1.15,2013-08-06 14:25:00,
2013-08-06 09:30:00,70.4,69.8,29.88,SW,227,5.0,5.0,98,0.00,,,0.00,287,Wunderground v.1.15,2013-08-06 14:30:00,
2013-08-06 09:35:00,70.6,70.0,29.88,SW,227,5.0,5.0,98,0.00,,,0.00,278,Wunderground v.1.15,2013-08-06 14:35:00,
2013-08-06 09:45:00,70.9,70.3,29.87,SW,217,4.0,5.0,98,0.00,,,0.00,320,Wunderground v.1.15,2013-08-06 14:45:00,
2013-08-06 09:50:00,71.3,70.7,29.87,SW,217,4.0,4.0,98,0.00,,,0.00,271,Wunderground v.1.15,2013-08-06 14:50:00,
2013-08-06 09:55:00,71.5,70.9,29.87,SW,217,3.0,4.0,98,0.00,,,0.00,350,Wunderground v.1.15,2013-08-06 14:55:00,
2013-08-06 10:00:00,71.8,71.2,29.87,SW,217,3.0,6.0,98,0.00,,,0.00,443,Wunderground v.1.15,2013-08-06 15:00:00,
2013-08-06 10:05:00,72.2,71.6,29.88,SW,217,3.0,6.0,98,0.00,,,0.00,691,Wunderground v.1.15,2013-08-06 15:05:00,
2013-08-06 10:10:00,72.7,72.1,29.88,SW,217,3.0,3.0,98,0.00,,,0.00,476,Wunderground v.1.15,2013-08-06 15:10:00,
2013-08-06 10:20:00,73.1,72.5,29.88,SW,217,3.0,3.0,98,0.00,,,0.00,638,Wunderground v.1.15,2013-08-06 15:20:00,
2013-08-06 10:25:00,73.6,73.0,29.88,SW,217,3.0,4.0,98,0.00,,,0.00,810,Wunderground v.1.15,2013-08-06 15:25:00,
2013-08-06 10:30:00,73.9,73.3,29.88,SW,217,4.0,4.0,98,0.00,,,0.00,348,Wunderground v.1.15,2013-08-06 15:30:00,
2013-08-06 10:35:00,74.0,73.4,29.87,SW,217,4.0,4.0,98,0.00,,,0.00,387,Wunderground v.1.15,2013-08-06 15:35:00,
2013-08-06 10:40:00,74.4,73.8,29.87,SW,217,4.0,4.0,98,0.00,,,0.00,504,Wunderground v.1.15,2013-08-06 15:40:00,
2013-08-06 10:50:00,75.1,74.2,29.87,SW,217,3.0,3.0,97,0.00,,,0.00,473,Wunderground v.1.15,2013-08-06 15:50:00,
2013-08-06 10:55:00,75.5,74.3,29.87,SW,217,2.0,3.0,96,0.00,,,0.00,707,Wunderground v.1.15,2013-08-06 15:55:00,
2013-08-06 11:00:00,75.8,74.3,29.86,SW,217,2.0,4.0,95,0.00,,,0.00,835,Wunderground v.1.15,2013-08-06 16:00:00,
2013-08-06 11:05:00,76.2,74.0,29.87,SW,217,3.0,5.0,93,0.00,,,0.00,501,Wunderground v.1.15,2013-08-06 16:05:00,
2013-08-06 11:10:00,76.4,73.9,29.86,SW,217,3.0,3.0,92,0.00,,,0.00,376,Wunderground v.1.15,2013-08-06 16:10:00,
2013-08-06 11:15:00,76.8,74.3,29.86,SW,217,2.0,3.0,92,0.00,,,0.00,369,Wunderground v.1.15,2013-08-06 16:15:00,
2013-08-06 11:25:00,77.8,74.3,29.86,SW,217,1.0,1.0,89,0.00,,,0.00,877,Wunderground v.1.15,2013-08-06 16:25:00,
2013-08-06 11:30:00,78.4,74.9,29.86,SW,217,2.0,2.0,89,0.00,,,0.00,867,Wunderground v.1.15,2013-08-06 16:30:00,
2013-08-06 11:35:00,78.8,74.6,29.86,SW,217,2.0,2.0,87,0.00,,,0.00,868,Wunderground v.1.15,2013-08-06 16:35:00,
2013-08-06 11:40:00,79.2,75.0,29.85,SW,217,2.0,2.0,87,0.00,,,0.00,870,Wunderground v.1.15,2013-08-06 16:40:00,
2013-08-06 11:45:00,79.7,75.5,29.85,SW,223,2.0,5.0,87,0.00,,,0.00,900,Wunderground v.1.15,2013-08-06 16:45:00,
2013-08-06 11:55:00,80.6,76.4,29.85,SW,228,2.0,3.0,87,0.00,,,0.00,905,Wunderground v.1.15,2013-08-06 16:55:00,
2013-08-06 12:00:00,81.2,76.3,29.85,SW,228,1.0,2.0,85,0.00,,,0.00,919,Wunderground v.1.15,2013-08-06 17:00:00,
2013-08-06 12:05:00,81.6,76.3,29.84,SW,228,2.0,2.0,84,0.00,,,0.00,916,Wunderground v.1.15,2013-08-06 17:05:00,
2013-08-06 12:10:00,81.8,75.8,29.84,SW,228,2.0,2.0,82,0.00,,,0.00,967,Wunderground v.1.15,2013-08-06 17:10:00,
2013-08-06 12:15:00,82.2,76.2,29.84,SW,228,2.0,2.0,82,0.00,,,0.00,1042,Wunderground v.1.15,2013-08-06 17:15:00,
2013-08-06 12:20:00,82.6,76.5,29.84,SW,228,1.0,1.0,82,0.00,,,0.00,439,Wunderground v.1.15,2013-08-06 17:20:00,
2013-08-06 12:30:00,83.0,75.8,29.84,SW,228,1.0,1.0,79,0.00,,,0.00,905,Wunderground v.1.15,2013-08-06 17:30:00,
2013-08-06 12:35:00,83.4,76.2,29.84,SW,228,1.0,1.0,79,0.00,,,0.00,907,Wunderground v.1.15,2013-08-06 17:35:00,
2013-08-06 12:40:00,84.1,77.3,29.84,SW,228,1.0,1.0,80,0.00,,,0.00,937,Wunderground v.1.15,2013-08-06 17:40:00,
2013-08-06 12:45:00,84.6,76.6,29.84,SW,228,1.0,1.0,77,0.00,,,0.00,930,Wunderground v.1.15,2013-08-06 17:45:00,
2013-08-06 12:50:00,85.0,75.0,29.83,SW,222,1.0,3.0,72,0.00,,,0.00,969,Wunderground v.1.15,2013-08-06 17:50:00,
2013-08-06 13:00:00,85.2,75.6,29.83,SW,222,2.0,2.0,73,0.00,,,0.00,904,Wunderground v.1.15,2013-08-06 18:00:00,
2013-08-06 13:10:00,85.5,77.1,29.83,SW,222,1.0,1.0,76,0.00,,,0.00,744,Wunderground v.1.15,2013-08-06 18:10:00,
2013-08-06 13:15:00,85.7,76.9,29.83,SW,222,1.0,1.0,75,0.00,,,0.00,715,Wunderground v.1.15,2013-08-06 18:15:00,
2013-08-06 13:20:00,85.8,77.4,29.83,SW,233,1.0,1.0,76,0.00,,,0.00,846,Wunderground v.1.15,2013-08-06 18:20:00,
2013-08-06 13:25:00,85.8,75.3,29.83,SW,233,1.0,1.0,71,0.00,,,0.00,875,Wunderground v.1.15,2013-08-06 18:25:00,
2013-08-06 13:30:00,85.9,76.2,29.83,SW,233,2.0,2.0,73,0.00,,,0.00,932,Wunderground v.1.15,2013-08-06 18:30:00,
2013-08-06 13:35:00,86.0,74.6,29.84,SW,233,1.0,2.0,69,0.00,,,0.00,925,Wunderground v.1.15,2013-08-06 18:35:00,
2013-08-06 13:40:00,86.1,75.2,29.83,SW,232,1.0,4.0,70,0.00,,,0.00,921,Wunderground v.1.15,2013-08-06 18:40:00,
2013-08-06 13:45:00,86.2,76.1,29.83,SW,232,2.0,4.0,72,0.00,,,0.00,921,Wunderground v.1.15,2013-08-06 18:45:00,
2013-08-06 13:50:00,86.1,74.7,29.83,SW,225,3.0,3.0,69,0.00,,,0.00,965,Wunderground v.1.15,2013-08-06 18:50:00,
2013-08-06 13:55:00,86.2,74.8,29.82,SW,229,2.0,3.0,69,0.00,,,0.00,986,Wunderground v.1.15,2013-08-06 18:55:00,
2013-08-06 14:05:00,86.5,75.5,29.82,SW,217,4.0,4.0,70,0.00,,,0.00,951,Wunderground v.1.15,2013-08-06 19:05:00,
2013-08-06 14:10:00,86.7,75.7,29.82,SW,217,3.0,3.0,70,0.00,,,0.00,935,Wunderground v.1.15,2013-08-06 19:10:00,
2013-08-06 14:15:00,87.0,77.3,29.82,ESE,107,2.0,4.0,73,0.00,,,0.00,923,Wunderground v.1.15,2013-08-06 19:15:00,
2013-08-06 14:20:00,87.0,75.2,29.81,South,175,3.0,4.0,68,0.00,,,0.00,209,Wunderground v.1.15,2013-08-06 19:20:00,
2013-08-06 14:25:00,86.9,75.5,29.81,SSE,155,3.0,4.0,69,0.00,,,0.00,904,Wunderground v.1.15,2013-08-06 19:25:00,
2013-08-06 14:30:00,87.0,75.2,29.81,SSE,155,3.0,3.0,68,0.00,,,0.00,900,Wunderground v.1.15,2013-08-06 19:30:00,
2013-08-06 14:35:00,87.2,75.3,29.81,SSE,155,2.0,3.0,68,0.00,,,0.00,881,Wunderground v.1.15,2013-08-06 19:35:00,
2013-08-06 14:40:00,87.5,74.7,29.81,SSE,155,2.0,2.0,66,0.00,,,0.00,911,Wunderground v.1.15,2013-08-06 19:40:00,
2013-08-06 14:45:00,87.7,76.3,29.80,SSE,155,2.0,3.0,69,0.00,,,0.00,896,Wunderground v.1.15,2013-08-06 19:45:00,
2013-08-06 14:50:00,87.7,75.4,29.80,SSE,155,3.0,3.0,67,0.00,,,0.00,909,Wunderground v.1.15,2013-08-06 19:50:00,
2013-08-06 14:55:00,87.8,75.5,29.79,SSE,161,3.0,4.0,67,0.00,,,0.00,942,Wunderground v.1.15,2013-08-06 19:55:00,
2013-08-06 15:00:00,87.7,76.7,29.80,SSE,158,4.0,4.0,70,0.00,,,0.00,940,Wunderground v.1.15,2013-08-06 20:00:00,
2013-08-06 15:10:00,87.6,77.5,29.79,SSE,152,4.0,6.0,72,0.00,,,0.00,877,Wunderground v.1.15,2013-08-06 20:10:00,
2013-08-06 15:15:00,87.5,75.6,29.79,SE,146,5.0,6.0,68,0.00,,,0.00,925,Wunderground v.1.15,2013-08-06 20:15:00,
2013-08-06 15:20:00,87.5,75.2,29.80,SE,146,4.0,4.0,67,0.00,,,0.00,190,Wunderground v.1.15,2013-08-06 20:20:00,
2013-08-06 15:25:00,87.5,76.9,29.79,SSE,147,3.0,4.0,71,0.00,,,0.00,840,Wunderground v.1.15,2013-08-06 20:25:00,
2013-08-06 15:30:00,87.4,76.4,29.79,SSE,165,4.0,10.0,70,0.00,,,0.00,292,Wunderground v.1.15,2013-08-06 20:30:00,
2013-08-06 15:35:00,86.7,76.2,29.79,SSE,150,6.0,10.0,71,0.00,,,0.00,232,Wunderground v.1.15,2013-08-06 20:35:00,
2013-08-06 15:40:00,85.9,76.2,29.79,SSE,153,6.0,8.0,73,0.00,,,0.00,814,Wunderground v.1.15,2013-08-06 20:40:00,
2013-08-06 15:45:00,85.7,76.5,29.78,SSE,159,7.0,11.0,74,0.00,,,0.00,812,Wunderground v.1.15,2013-08-06 20:45:00,
2013-08-06 15:50:00,85.5,75.9,29.77,SSE,150,9.0,10.0,73,0.00,,,0.00,448,Wunderground v.1.15,2013-08-06 20:50:00,
2013-08-06 15:55:00,85.7,77.7,29.77,SSE,148,8.0,10.0,77,0.00,,,0.00,861,Wunderground v.1.15,2013-08-06 20:55:00,
2013-08-06 16:00:00,86.1,76.4,29.76,South,186,8.0,9.0,73,0.00,,,0.00,905,Wunderground v.1.15,2013-08-06 21:00:00,
2013-08-06 16:10:00,86.0,77.5,29.79,South,173,4.0,4.0,76,0.00,,,0.00,909,Wunderground v.1.15,2013-08-06 21:10:00,
2013-08-06 16:20:00,86.2,76.1,29.79,SSE,156,5.0,6.0,72,0.00,,,0.00,316,Wunderground v.1.15,2013-08-06 21:20:00,
2013-08-06 16:25:00,85.8,76.1,29.79,SSE,167,5.0,6.0,73,0.00,,,0.00,355,Wunderground v.1.15,2013-08-06 21:25:00,
2013-08-06 16:30:00,85.5,76.3,29.79,SSE,165,5.0,5.0,74,0.00,,,0.00,383,Wunderground v.1.15,2013-08-06 21:30:00,
2013-08-06 16:35:00,85.6,77.6,29.80,South,182,4.0,9.0,77,0.00,,,0.00,446,Wunderground v.1.15,2013-08-06 21:35:00,
2013-08-06 16:40:00,85.9,78.2,29.80,South,179,4.0,5.0,78,0.00,,,0.00,807,Wunderground v.1.15,2013-08-06 21:40:00,
2013-08-06 16:45:00,86.0,77.5,29.80,South,179,6.0,6.0,76,0.00,,,0.00,330,Wunderground v.1.15,2013-08-06 21:45:00,
2013-08-06 16:50:00,85.8,77.8,29.80,South,177,7.0,9.0,77,0.00,,,0.00,628,Wunderground v.1.15,2013-08-06 21:50:00,
2013-08-06 16:55:00,85.5,77.5,29.80,South,171,7.0,9.0,77,0.00,,,0.00,406,Wunderground v.1.15,2013-08-06 21:55:00,
2013-08-06 17:05:00,84.5,76.5,29.80,South,178,6.0,7.0,77,0.00,,,0.00,230,Wunderground v.1.15,2013-08-06 22:05:00,
2013-08-06 17:10:00,84.1,76.9,29.80,South,180,5.0,5.0,79,0.00,,,0.00,237,Wunderground v.1.15,2013-08-06 22:10:00,
2013-08-06 17:15:00,83.8,76.6,29.80,South,178,4.0,5.0,79,0.00,,,0.00,258,Wunderground v.1.15,2013-08-06 22:15:00,
2013-08-06 17:25:00,83.9,77.4,29.80,South,180,4.0,9.0,81,0.00,,,0.00,591,Wunderground v.1.15,2013-08-06 22:25:00,
2013-08-06 17:30:00,84.2,77.0,29.80,South,180,5.0,7.0,79,0.00,,,0.00,478,Wunderground v.1.15,2013-08-06 22:30:00,
2013-08-06 17:35:00,84.4,77.2,29.80,South,180,5.0,7.0,79,0.00,,,0.00,434,Wunderground v.1.15,2013-08-06 22:35:00,
2013-08-06 17:40:00,84.5,76.5,29.80,South,175,5.0,5.0,77,0.00,,,0.00,418,Wunderground v.1.15,2013-08-06 22:40:00,
2013-08-06 17:45:00,84.5,76.5,29.80,SSE,165,5.0,5.0,77,0.00,,,0.00,388,Wunderground v.1.15,2013-08-06 22:45:00,
2013-08-06 17:55:00,84.5,76.5,29.80,SSE,153,4.0,5.0,77,0.00,,,0.00,359,Wunderground v.1.15,2013-08-06 22:55:00,
2013-08-06 18:00:00,84.5,76.1,29.80,South,173,4.0,4.0,76,0.00,,,0.00,334,Wunderground v.1.15,2013-08-06 23:00:00,
2013-08-06 18:05:00,84.4,76.4,29.80,South,186,4.0,5.0,77,0.00,,,0.00,315,Wunderground v.1.15,2013-08-06 23:05:00,
2013-08-06 18:10:00,84.4,76.8,29.80,South,182,4.0,4.0,78,0.00,,,0.00,292,Wunderground v.1.15,2013-08-06 23:10:00,
2013-08-06 18:15:00,84.4,76.4,29.80,South,182,3.0,4.0,77,0.00,,,0.00,272,Wunderground v.1.15,2013-08-06 23:15:00,
2013-08-06 18:20:00,84.3,76.7,29.80,South,182,3.0,3.0,78,0.00,,,0.00,265,Wunderground v.1.15,2013-08-06 23:20:00,
2013-08-06 18:30:00,84.3,76.7,29.80,South,182,2.0,2.0,78,0.00,,,0.00,200,Wunderground v.1.15,2013-08-06 23:30:00,
2013-08-06 18:35:00,84.2,76.6,29.80,South,182,2.0,3.0,78,0.00,,,0.00,197,Wunderground v.1.15,2013-08-06 23:35:00,
2013-08-06 18:40:00,84.1,76.5,29.80,South,182,2.0,2.0,78,0.00,,,0.00,204,Wunderground v.1.15,2013-08-06 23:40:00,
2013-08-06 18:45:00,84.0,76.4,29.80,South,182,2.0,3.0,78,0.00,,,0.00,188,Wunderground v.1.15,2013-08-06 23:45:00,
2013-08-06 18:50:00,83.9,76.3,29.80,South,182,2.0,2.0,78,0.00,,,0.00,120,Wunderground v.1.15,2013-08-06 23:50:00,
2013-08-06 19:00:00,83.7,76.9,29.79,South,178,2.0,3.0,80,0.00,,,0.00,141,Wunderground v.1.15,2013-08-07 00:00:00,
2013-08-06 19:05:00,83.6,76.8,29.80,South,174,2.0,3.0,80,0.00,,,0.00,142,Wunderground v.1.15,2013-08-07 00:05:00,
2013-08-06 19:10:00,83.6,76.8,29.80,South,174,2.0,3.0,80,0.00,,,0.00,142,Wunderground v.1.15,2013-08-07 00:10:00,
2013-08-06 19:15:00,83.4,76.6,29.79,South,174,2.0,3.0,80,0.00,,,0.00,90,Wunderground v.1.15,2013-08-07 00:15:00,
2013-08-06 19:20:00,83.2,76.8,29.79,South,174,2.0,2.0,81,0.00,,,0.00,90,Wunderground v.1.15,2013-08-07 00:20:00,
2013-08-06 19:25:00,83.0,76.2,29.79,South,174,3.0,3.0,80,0.00,,,0.00,69,Wunderground v.1.15,2013-08-07 00:25:00,
2013-08-06 19:35:00,82.5,76.1,29.79,South,173,3.0,3.0,81,0.00,,,0.00,21,Wunderground v.1.15,2013-08-07 00:35:00,
2013-08-06 19:40:00,82.1,75.7,29.79,South,173,3.0,3.0,81,0.00,,,0.00,14,Wunderground v.1.15,2013-08-07 00:40:00,
2013-08-06 19:45:00,81.7,76.0,29.79,South,173,3.0,3.0,83,0.00,,,0.00,12,Wunderground v.1.15,2013-08-07 00:45:00,
2013-08-06 19:50:00,81.4,75.7,29.80,South,173,2.0,2.0,83,0.00,,,0.00,9,Wunderground v.1.15,2013-08-07 00:50:00,
2013-08-06 19:55:00,81.2,75.9,29.79,South,173,0.0,2.0,84,0.00,,,0.00,7,Wunderground v.1.15,2013-08-07 00:55:00,
2013-08-06 20:05:00,80.5,75.6,29.79,South,173,0.0,0.0,85,0.00,,,0.00,0,Wunderground v.1.15,2013-08-07 01:05:00,
2013-08-06 20:10:00,80.2,75.3,29.80,South,173,0.0,0.0,85,0.00,,,0.00,0,Wunderground v.1.15,2013-08-07 01:10:00,
2013-08-06 20:15:00,79.8,75.2,29.80,South,173,1.0,2.0,86,0.00,,,0.00,0,Wunderground v.1.15,2013-08-07 01:15:00,
2013-08-06 20:20:00,79.5,75.3,29.81,South,173,1.0,1.0,87,0.00,,,0.00,0,Wunderground v.1.15,2013-08-07 01:20:00,
2013-08-06 20:25:00,79.2,75.0,29.80,South,173,2.0,2.0,87,0.00,,,0.00,0,Wunderground v.1.15,2013-08-07 01:25:00,
2013-08-06 20:30:00,78.8,74.9,29.81,South,173,2.0,2.0,88,0.00,,,0.00,0,Wunderground v.1.15,2013-08-07 01:30:00,
2013-08-06 20:40:00,78.2,74.4,29.81,South,173,2.0,2.0,88,0.00,,,0.00,0,Wunderground v.1.15,2013-08-07 01:40:00,
2013-08-06 20:45:00,77.9,74.4,29.81,South,173,1.0,2.0,89,0.00,,,0.00,0,Wunderground v.1.15,2013-08-07 01:45:00,
2013-08-06 20:50:00,77.5,74.0,29.82,South,173,1.0,1.0,89,0.00,,,0.00,0,Wunderground v.1.15,2013-08-07 01:50:00,
2013-08-06 20:55:00,77.3,74.1,29.82,South,173,0.0,1.0,90,0.00,,,0.00,0,Wunderground v.1.15,2013-08-07 01:55:00,
2013-08-06 21:00:00,77.1,73.9,29.82,South,173,0.0,1.0,90,0.00,,,0.00,0,Wunderground v.1.15,2013-08-07 02:00:00,
2013-08-06 21:05:00,76.9,73.7,29.82,South,173,1.0,1.0,90,0.00,,,0.00,0,Wunderground v.1.15,2013-08-07 02:05:00,
2013-08-06 21:10:00,76.7,73.9,29.82,South,173,1.0,1.0,91,0.00,,,0.00,0,Wunderground v.1.15,2013-08-07 02:10:00,
2013-08-06 21:15:00,76.6,73.8,29.82,South,173,0.0,1.0,91,0.00,,,0.00,0,Wunderground v.1.15,2013-08-07 02:15:00,
2013-08-06 21:20:00,76.4,73.6,29.82,South,173,0.0,0.0,91,0.00,,,0.00,0,Wunderground v.1.15,2013-08-07 02:20:00,
2013-08-06 21:25:00,76.2,73.4,29.83,South,173,1.0,2.0,91,0.00,,,0.00,0,Wunderground v.1.15,2013-08-07 02:25:00,
2013-08-06 21:30:00,76.1,73.6,29.83,South,173,1.0,1.0,92,0.00,,,0.00,0,Wunderground v.1.15,2013-08-07 02:30:00,
2013-08-06 21:35:00,76.0,73.5,29.84,South,173,1.0,1.0,92,0.00,,,0.00,0,Wunderground v.1.15,2013-08-07 02:35:00,
2013-08-06 21:45:00,75.7,73.2,29.84,South,173,0.0,0.0,92,0.00,,,0.00,0,Wunderground v.1.15,2013-08-07 02:45:00,
2013-08-06 21:50:00,75.6,73.1,29.84,South,173,0.0,0.0,92,0.00,,,0.00,0,Wunderground v.1.15,2013-08-07 02:50:00,
2013-08-06 21:55:00,75.5,73.0,29.84,South,173,0.0,0.0,92,0.00,,,0.00,0,Wunderground v.1.15,2013-08-07 02:55:00,
2013-08-06 22:00:00,75.4,72.9,29.84,South,173,0.0,0.0,92,0.00,,,0.00,0,Wunderground v.1.15,2013-08-07 03:00:00,
2013-08-06 22:05:00,75.3,72.8,29.84,South,173,0.0,0.0,92,0.00,,,0.00,0,Wunderground v.1.15,2013-08-07 03:05:00,
2013-08-06 22:15:00,75.1,72.9,29.84,South,173,0.0,1.0,93,0.00,,,0.00,0,Wunderground v.1.15,2013-08-07 03:15:00,
2013-08-06 22:20:00,75.1,72.9,29.84,South,173,1.0,2.0,93,0.00,,,0.00,0,Wunderground v.1.15,2013-08-07 03:20:00,
2013-08-06 22:25:00,75.0,72.8,29.83,South,173,2.0,4.0,93,0.00,,,0.00,0,Wunderground v.1.15,2013-08-07 03:25:00,
2013-08-06 22:30:00,75.0,72.8,29.83,South,173,2.0,2.0,93,0.00,,,0.00,0,Wunderground v.1.15,2013-08-07 03:30:00,
2013-08-06 22:35:00,74.9,72.7,29.83,South,173,3.0,3.0,93,0.00,,,0.00,0,Wunderground v.1.15,2013-08-07 03:35:00,
2013-08-06 22:40:00,74.9,72.7,29.83,South,173,2.0,2.0,93,0.00,,,0.00,0,Wunderground v.1.15,2013-08-07 03:40:00,
2013-08-06 22:50:00,74.7,72.5,29.83,South,173,2.0,3.0,93,0.00,,,0.00,0,Wunderground v.1.15,2013-08-07 03:50:00,
2013-08-06 22:55:00,74.5,72.3,29.82,South,173,3.0,3.0,93,0.00,,,0.00,0,Wunderground v.1.15,2013-08-07 03:55:00,
2013-08-06 23:00:00,74.4,72.2,29.82,South,173,3.0,3.0,93,0.00,,,0.00,0,Wunderground v.1.15,2013-08-07 04:00:00,
2013-08-06 23:05:00,74.2,72.0,29.82,South,173,3.0,3.0,93,0.00,,,0.00,0,Wunderground v.1.15,2013-08-07 04:05:00,
2013-08-06 23:10:00,74.1,71.9,29.83,South,173,3.0,3.0,93,0.00,,,0.00,0,Wunderground v.1.15,2013-08-07 04:10:00,
2013-08-06 23:15:00,74.1,71.9,29.82,South,173,2.0,3.0,93,0.00,,,0.00,0,Wunderground v.1.15,2013-08-07 04:15:00,
2013-08-06 23:20:00,74.0,71.8,29.83,South,173,1.0,1.0,93,0.00,,,0.00,0,Wunderground v.1.15,2013-08-07 04:20:00,
2013-08-06 23:25:00,73.8,71.6,29.83,South,173,0.0,1.0,93,0.00,,,0.00,0,Wunderground v.1.15,2013-08-07 04:25:00,
2013-08-06 23:30:00,73.6,71.4,29.83,South,173,1.0,2.0,93,0.00,,,0.00,0,Wunderground v.1.15,2013-08-07 04:30:00,
2013-08-06 23:35:00,73.4,71.3,29.83,South,173,1.0,2.0,93,0.00,,,0.00,0,Wunderground v.1.15,2013-08-07 04:35:00,
2013-08-06 23:40:00,73.4,71.6,29.82,South,173,2.0,4.0,94,0.00,,,0.00,0,Wunderground v.1.15,2013-08-07 04:40:00,
2013-08-06 23:45:00,73.3,71.5,29.82,South,174,3.0,4.0,94,0.00,,,0.00,0,Wunderground v.1.15,2013-08-07 04:45:00,
2013-08-06 23:55:00,73.3,71.5,29.82,South,174,2.0,5.0,94,0.00,,,0.00,0,Wunderground v.1.15,2013-08-07 04:55:00,